sensor_id;sensor_type;location;lat;lon;timestamp;P1;durP1;ratioP1;P2;durP2;ratioP2
4756;SDS011;2392;52.578;13.426;2022-10-24T00:00:15;10.73;;;7.50;;
4756;SDS011;2392;52.578;13.426;2022-10-24T00:02:42;9.50;;;7.20;;
4756;SDS011;2392;52.578;13.426;2022-10-24T00:05:10;9.07;;;7.20;;
4756;SDS011;2392;52.578;13.426;2022-10-24T00:07:39;6.90;;;6.20;;
4756;SDS011;2392;52.578;13.426;2022-10-24T00:10:06;11.10;;;7.40;;
4756;SDS011;2392;52.578;13.426;2022-10-24T00:12:34;9.00;;;6.70;;
4756;SDS011;2392;52.578;13.426;2022-10-24T00:15:00;11.57;;;6.50;;
4756;SDS011;2392;52.578;13.426;2022-10-24T00:17:28;9.53;;;6.37;;
4756;SDS011;2392;52.578;13.426;2022-10-24T00:19:55;7.50;;;5.80;;
4756;SDS011;2392;52.578;13.426;2022-10-24T00:22:23;9.73;;;6.67;;
4756;SDS011;2392;52.578;13.426;2022-10-24T00:24:52;9.37;;;6.13;;
4756;SDS011;2392;52.578;13.426;2022-10-24T00:27:18;13.80;;;7.20;;
4756;SDS011;2392;52.578;13.426;2022-10-24T00:29:45;9.50;;;6.73;;
4756;SDS011;2392;52.578;13.426;2022-10-24T00:32:12;9.27;;;6.63;;
4756;SDS011;2392;52.578;13.426;2022-10-24T00:34:39;8.37;;;7.00;;
4756;SDS011;2392;52.578;13.426;2022-10-24T00:37:06;8.70;;;6.47;;
4756;SDS011;2392;52.578;13.426;2022-10-24T00:39:33;10.53;;;6.90;;
4756;SDS011;2392;52.578;13.426;2022-10-24T00:42:01;8.63;;;7.30;;
4756;SDS011;2392;52.578;13.426;2022-10-24T00:44:29;7.60;;;6.70;;
4756;SDS011;2392;52.578;13.426;2022-10-24T00:46:58;13.47;;;7.57;;
4756;SDS011;2392;52.578;13.426;2022-10-24T00:49:30;8.93;;;7.10;;
4756;SDS011;2392;52.578;13.426;2022-10-24T00:52:03;13.90;;;7.97;;
4756;SDS011;2392;52.578;13.426;2022-10-24T00:54:33;12.30;;;8.80;;
4756;SDS011;2392;52.578;13.426;2022-10-24T00:57:03;9.43;;;7.60;;
4756;SDS011;2392;52.578;13.426;2022-10-24T00:59:33;10.40;;;8.20;;
4756;SDS011;2392;52.578;13.426;2022-10-24T01:02:01;9.07;;;8.03;;
4756;SDS011;2392;52.578;13.426;2022-10-24T01:04:28;10.37;;;7.50;;
4756;SDS011;2392;52.578;13.426;2022-10-24T01:06:59;10.80;;;8.33;;
4756;SDS011;2392;52.578;13.426;2022-10-24T01:09:37;16.80;;;8.27;;
4756;SDS011;2392;52.578;13.426;2022-10-24T01:12:38;8.37;;;6.93;;
4756;SDS011;2392;52.578;13.426;2022-10-24T01:15:18;9.03;;;8.07;;
4756;SDS011;2392;52.578;13.426;2022-10-24T01:17:50;11.60;;;8.53;;
4756;SDS011;2392;52.578;13.426;2022-10-24T01:23:39;9.93;;;8.00;;
4756;SDS011;2392;52.578;13.426;2022-10-24T01:32:15;14.77;;;7.70;;
4756;SDS011;2392;52.578;13.426;2022-10-24T01:34:49;6.90;;;6.20;;
4756;SDS011;2392;52.578;13.426;2022-10-24T01:37:23;8.60;;;7.23;;
4756;SDS011;2392;52.578;13.426;2022-10-24T01:39:54;10.20;;;7.17;;
4756;SDS011;2392;52.578;13.426;2022-10-24T01:42:25;8.17;;;7.37;;
4756;SDS011;2392;52.578;13.426;2022-10-24T01:44:56;9.93;;;6.73;;
4756;SDS011;2392;52.578;13.426;2022-10-24T01:47:26;10.93;;;7.50;;
4756;SDS011;2392;52.578;13.426;2022-10-24T01:49:58;8.93;;;7.70;;
4756;SDS011;2392;52.578;13.426;2022-10-24T01:52:29;8.77;;;6.83;;
4756;SDS011;2392;52.578;13.426;2022-10-24T01:54:59;13.23;;;7.07;;
4756;SDS011;2392;52.578;13.426;2022-10-24T01:57:27;7.40;;;6.70;;
4756;SDS011;2392;52.578;13.426;2022-10-24T01:59:56;19.20;;;9.30;;
4756;SDS011;2392;52.578;13.426;2022-10-24T02:02:24;8.23;;;6.50;;
4756;SDS011;2392;52.578;13.426;2022-10-24T02:04:55;8.30;;;7.50;;
4756;SDS011;2392;52.578;13.426;2022-10-24T02:07:26;10.07;;;7.20;;
4756;SDS011;2392;52.578;13.426;2022-10-24T02:09:56;9.40;;;7.10;;
4756;SDS011;2392;52.578;13.426;2022-10-24T02:12:26;10.10;;;6.30;;
4756;SDS011;2392;52.578;13.426;2022-10-24T02:14:56;10.20;;;7.10;;
4756;SDS011;2392;52.578;13.426;2022-10-24T02:17:28;10.77;;;7.33;;
4756;SDS011;2392;52.578;13.426;2022-10-24T02:19:55;10.63;;;6.37;;
4756;SDS011;2392;52.578;13.426;2022-10-24T02:22:25;7.73;;;6.23;;
4756;SDS011;2392;52.578;13.426;2022-10-24T02:24:59;10.37;;;7.13;;
4756;SDS011;2392;52.578;13.426;2022-10-24T02:27:30;7.37;;;6.63;;
4756;SDS011;2392;52.578;13.426;2022-10-24T02:30:03;12.97;;;7.77;;
4756;SDS011;2392;52.578;13.426;2022-10-24T02:32:34;7.20;;;5.53;;
4756;SDS011;2392;52.578;13.426;2022-10-24T02:35:04;6.97;;;6.27;;
4756;SDS011;2392;52.578;13.426;2022-10-24T02:37:33;7.17;;;6.43;;
4756;SDS011;2392;52.578;13.426;2022-10-24T02:40:05;11.63;;;7.17;;
4756;SDS011;2392;52.578;13.426;2022-10-24T02:42:35;11.00;;;6.57;;
4756;SDS011;2392;52.578;13.426;2022-10-24T02:45:05;8.80;;;6.53;;
4756;SDS011;2392;52.578;13.426;2022-10-24T02:47:34;10.10;;;7.37;;
4756;SDS011;2392;52.578;13.426;2022-10-24T02:50:05;11.07;;;7.40;;
4756;SDS011;2392;52.578;13.426;2022-10-24T02:52:33;10.67;;;7.00;;
4756;SDS011;2392;52.578;13.426;2022-10-24T02:55:01;6.83;;;6.13;;
4756;SDS011;2392;52.578;13.426;2022-10-24T02:57:28;8.50;;;5.73;;
4756;SDS011;2392;52.578;13.426;2022-10-24T02:59:55;7.27;;;5.93;;
4756;SDS011;2392;52.578;13.426;2022-10-24T03:02:23;13.87;;;6.87;;
4756;SDS011;2392;52.578;13.426;2022-10-24T03:04:50;7.50;;;6.60;;
4756;SDS011;2392;52.578;13.426;2022-10-24T03:07:17;13.00;;;6.77;;
4756;SDS011;2392;52.578;13.426;2022-10-24T03:09:44;8.63;;;6.40;;
4756;SDS011;2392;52.578;13.426;2022-10-24T03:12:12;8.87;;;6.43;;
4756;SDS011;2392;52.578;13.426;2022-10-24T03:14:40;5.87;;;5.27;;
4756;SDS011;2392;52.578;13.426;2022-10-24T03:17:07;6.73;;;6.13;;
4756;SDS011;2392;52.578;13.426;2022-10-24T03:19:35;6.97;;;5.53;;
4756;SDS011;2392;52.578;13.426;2022-10-24T03:22:02;5.60;;;5.10;;
4756;SDS011;2392;52.578;13.426;2022-10-24T03:24:29;8.23;;;6.43;;
4756;SDS011;2392;52.578;13.426;2022-10-24T03:26:56;7.73;;;6.70;;
4756;SDS011;2392;52.578;13.426;2022-10-24T03:29:23;9.33;;;6.30;;
4756;SDS011;2392;52.578;13.426;2022-10-24T03:31:50;7.37;;;5.93;;
4756;SDS011;2392;52.578;13.426;2022-10-24T03:34:16;8.60;;;6.37;;
4756;SDS011;2392;52.578;13.426;2022-10-24T03:36:45;6.07;;;5.47;;
4756;SDS011;2392;52.578;13.426;2022-10-24T03:39:11;5.77;;;5.23;;
4756;SDS011;2392;52.578;13.426;2022-10-24T03:41:38;8.30;;;5.87;;
4756;SDS011;2392;52.578;13.426;2022-10-24T03:44:05;8.07;;;5.43;;
4756;SDS011;2392;52.578;13.426;2022-10-24T03:46:32;9.57;;;5.47;;
4756;SDS011;2392;52.578;13.426;2022-10-24T03:48:59;6.30;;;5.70;;
4756;SDS011;2392;52.578;13.426;2022-10-24T03:51:26;6.67;;;5.13;;
4756;SDS011;2392;52.578;13.426;2022-10-24T03:53:54;8.57;;;5.37;;
4756;SDS011;2392;52.578;13.426;2022-10-24T03:56:21;9.53;;;5.20;;
4756;SDS011;2392;52.578;13.426;2022-10-24T03:58:48;8.33;;;5.90;;
4756;SDS011;2392;52.578;13.426;2022-10-24T04:01:14;6.33;;;5.67;;
4756;SDS011;2392;52.578;13.426;2022-10-24T04:03:43;6.50;;;5.30;;
4756;SDS011;2392;52.578;13.426;2022-10-24T04:06:10;6.40;;;5.10;;
4756;SDS011;2392;52.578;13.426;2022-10-24T04:08:36;6.33;;;5.27;;
4756;SDS011;2392;52.578;13.426;2022-10-24T04:11:05;5.60;;;5.10;;
4756;SDS011;2392;52.578;13.426;2022-10-24T04:13:32;6.43;;;5.47;;
4756;SDS011;2392;52.578;13.426;2022-10-24T04:15:59;5.03;;;4.53;;
4756;SDS011;2392;52.578;13.426;2022-10-24T04:18:27;9.27;;;4.60;;
4756;SDS011;2392;52.578;13.426;2022-10-24T04:20:54;8.70;;;5.10;;
4756;SDS011;2392;52.578;13.426;2022-10-24T04:23:20;8.37;;;4.53;;
4756;SDS011;2392;52.578;13.426;2022-10-24T04:25:47;8.47;;;4.90;;
4756;SDS011;2392;52.578;13.426;2022-10-24T04:28:15;6.10;;;4.63;;
4756;SDS011;2392;52.578;13.426;2022-10-24T04:30:43;6.47;;;4.80;;
4756;SDS011;2392;52.578;13.426;2022-10-24T04:33:10;5.00;;;4.50;;
4756;SDS011;2392;52.578;13.426;2022-10-24T04:35:37;4.90;;;4.40;;
4756;SDS011;2392;52.578;13.426;2022-10-24T04:38:04;4.97;;;4.47;;
4756;SDS011;2392;52.578;13.426;2022-10-24T04:40:30;6.60;;;4.70;;
4756;SDS011;2392;52.578;13.426;2022-10-24T04:42:57;10.60;;;4.77;;
4756;SDS011;2392;52.578;13.426;2022-10-24T04:45:26;7.13;;;4.90;;
4756;SDS011;2392;52.578;13.426;2022-10-24T04:47:52;7.67;;;4.37;;
4756;SDS011;2392;52.578;13.426;2022-10-24T04:50:19;6.43;;;4.70;;
4756;SDS011;2392;52.578;13.426;2022-10-24T04:52:46;7.13;;;5.00;;
4756;SDS011;2392;52.578;13.426;2022-10-24T04:55:13;6.77;;;5.10;;
4756;SDS011;2392;52.578;13.426;2022-10-24T04:57:40;5.03;;;4.50;;
4756;SDS011;2392;52.578;13.426;2022-10-24T05:00:07;8.53;;;4.40;;
4756;SDS011;2392;52.578;13.426;2022-10-24T05:02:36;6.20;;;4.83;;
4756;SDS011;2392;52.578;13.426;2022-10-24T05:05:03;7.73;;;4.77;;
4756;SDS011;2392;52.578;13.426;2022-10-24T05:07:30;5.80;;;4.37;;
4756;SDS011;2392;52.578;13.426;2022-10-24T05:09:57;5.80;;;5.20;;
4756;SDS011;2392;52.578;13.426;2022-10-24T05:12:24;6.57;;;4.40;;
4756;SDS011;2392;52.578;13.426;2022-10-24T05:14:51;4.77;;;4.40;;
4756;SDS011;2392;52.578;13.426;2022-10-24T05:17:18;8.93;;;5.03;;
4756;SDS011;2392;52.578;13.426;2022-10-24T05:19:46;6.57;;;4.87;;
4756;SDS011;2392;52.578;13.426;2022-10-24T05:22:13;6.93;;;5.00;;
4756;SDS011;2392;52.578;13.426;2022-10-24T05:24:40;7.93;;;5.27;;
4756;SDS011;2392;52.578;13.426;2022-10-24T05:27:06;6.07;;;4.50;;
4756;SDS011;2392;52.578;13.426;2022-10-24T05:29:33;5.00;;;4.50;;
4756;SDS011;2392;52.578;13.426;2022-10-24T05:32:00;6.20;;;4.60;;
4756;SDS011;2392;52.578;13.426;2022-10-24T05:34:27;5.70;;;4.20;;
4756;SDS011;2392;52.578;13.426;2022-10-24T05:36:55;7.00;;;4.77;;
4756;SDS011;2392;52.578;13.426;2022-10-24T05:39:22;7.50;;;4.70;;
4756;SDS011;2392;52.578;13.426;2022-10-24T05:41:49;8.20;;;4.90;;
4756;SDS011;2392;52.578;13.426;2022-10-24T05:44:16;6.23;;;4.40;;
4756;SDS011;2392;52.578;13.426;2022-10-24T05:46:43;8.20;;;4.60;;
4756;SDS011;2392;52.578;13.426;2022-10-24T05:49:11;6.00;;;4.50;;
4756;SDS011;2392;52.578;13.426;2022-10-24T05:51:39;9.07;;;4.30;;
4756;SDS011;2392;52.578;13.426;2022-10-24T05:54:07;5.10;;;4.50;;
4756;SDS011;2392;52.578;13.426;2022-10-24T05:56:33;10.70;;;4.37;;
4756;SDS011;2392;52.578;13.426;2022-10-24T05:59:00;5.60;;;4.53;;
4756;SDS011;2392;52.578;13.426;2022-10-24T06:01:27;4.70;;;3.83;;
4756;SDS011;2392;52.578;13.426;2022-10-24T06:03:54;12.93;;;4.60;;
4756;SDS011;2392;52.578;13.426;2022-10-24T06:06:23;5.50;;;3.87;;
4756;SDS011;2392;52.578;13.426;2022-10-24T06:08:50;5.53;;;4.17;;
4756;SDS011;2392;52.578;13.426;2022-10-24T06:11:19;8.60;;;5.00;;
4756;SDS011;2392;52.578;13.426;2022-10-24T06:13:46;12.90;;;4.80;;
4756;SDS011;2392;52.578;13.426;2022-10-24T06:16:12;5.77;;;4.43;;
4756;SDS011;2392;52.578;13.426;2022-10-24T06:18:39;7.93;;;4.90;;
4756;SDS011;2392;52.578;13.426;2022-10-24T06:21:07;14.87;;;5.10;;
4756;SDS011;2392;52.578;13.426;2022-10-24T06:23:34;6.23;;;4.23;;
4756;SDS011;2392;52.578;13.426;2022-10-24T06:26:05;6.50;;;4.27;;
4756;SDS011;2392;52.578;13.426;2022-10-24T06:28:35;9.73;;;5.70;;
4756;SDS011;2392;52.578;13.426;2022-10-24T06:31:02;7.60;;;6.13;;
4756;SDS011;2392;52.578;13.426;2022-10-24T06:33:30;8.87;;;5.50;;
4756;SDS011;2392;52.578;13.426;2022-10-24T06:35:58;8.80;;;5.40;;
4756;SDS011;2392;52.578;13.426;2022-10-24T06:38:25;7.97;;;5.23;;
4756;SDS011;2392;52.578;13.426;2022-10-24T06:40:52;12.60;;;5.93;;
4756;SDS011;2392;52.578;13.426;2022-10-24T06:43:19;9.73;;;5.77;;
4756;SDS011;2392;52.578;13.426;2022-10-24T06:45:47;7.13;;;5.43;;
4756;SDS011;2392;52.578;13.426;2022-10-24T06:48:14;8.60;;;6.00;;
4756;SDS011;2392;52.578;13.426;2022-10-24T06:50:41;8.00;;;5.63;;
4756;SDS011;2392;52.578;13.426;2022-10-24T06:53:08;9.13;;;6.17;;
4756;SDS011;2392;52.578;13.426;2022-10-24T06:55:36;7.30;;;5.17;;
4756;SDS011;2392;52.578;13.426;2022-10-24T06:58:04;11.90;;;5.10;;
4756;SDS011;2392;52.578;13.426;2022-10-24T07:00:31;14.27;;;5.63;;
4756;SDS011;2392;52.578;13.426;2022-10-24T07:03:00;5.93;;;5.23;;
4756;SDS011;2392;52.578;13.426;2022-10-24T07:05:27;10.13;;;5.93;;
4756;SDS011;2392;52.578;13.426;2022-10-24T07:07:53;13.37;;;5.30;;
4756;SDS011;2392;52.578;13.426;2022-10-24T07:10:20;13.37;;;4.87;;
4756;SDS011;2392;52.578;13.426;2022-10-24T07:12:47;7.53;;;4.30;;
4756;SDS011;2392;52.578;13.426;2022-10-24T07:15:14;9.17;;;4.90;;
4756;SDS011;2392;52.578;13.426;2022-10-24T07:17:41;10.50;;;4.70;;
4756;SDS011;2392;52.578;13.426;2022-10-24T07:20:12;11.90;;;5.43;;
4756;SDS011;2392;52.578;13.426;2022-10-24T07:22:39;8.23;;;5.33;;
4756;SDS011;2392;52.578;13.426;2022-10-24T07:25:07;9.53;;;5.20;;
4756;SDS011;2392;52.578;13.426;2022-10-24T07:27:35;7.27;;;5.43;;
4756;SDS011;2392;52.578;13.426;2022-10-24T07:30:02;6.90;;;4.90;;
4756;SDS011;2392;52.578;13.426;2022-10-24T07:32:30;6.83;;;4.73;;
4756;SDS011;2392;52.578;13.426;2022-10-24T07:34:56;10.63;;;4.43;;
4756;SDS011;2392;52.578;13.426;2022-10-24T07:37:25;12.73;;;5.87;;
4756;SDS011;2392;52.578;13.426;2022-10-24T07:39:52;8.00;;;4.57;;
4756;SDS011;2392;52.578;13.426;2022-10-24T07:42:19;11.97;;;4.90;;
4756;SDS011;2392;52.578;13.426;2022-10-24T07:44:45;10.03;;;4.80;;
4756;SDS011;2392;52.578;13.426;2022-10-24T07:47:12;9.13;;;4.03;;
4756;SDS011;2392;52.578;13.426;2022-10-24T07:49:39;7.03;;;4.40;;
4756;SDS011;2392;52.578;13.426;2022-10-24T07:52:06;4.50;;;3.80;;
4756;SDS011;2392;52.578;13.426;2022-10-24T07:54:34;7.13;;;4.17;;
4756;SDS011;2392;52.578;13.426;2022-10-24T07:57:01;10.30;;;4.10;;
4756;SDS011;2392;52.578;13.426;2022-10-24T07:59:28;6.20;;;4.43;;
4756;SDS011;2392;52.578;13.426;2022-10-24T08:01:55;11.37;;;4.67;;
4756;SDS011;2392;52.578;13.426;2022-10-24T08:04:21;11.43;;;4.50;;
4756;SDS011;2392;52.578;13.426;2022-10-24T08:06:48;8.73;;;4.60;;
4756;SDS011;2392;52.578;13.426;2022-10-24T08:09:15;12.03;;;4.53;;
4756;SDS011;2392;52.578;13.426;2022-10-24T08:11:44;10.30;;;4.53;;
4756;SDS011;2392;52.578;13.426;2022-10-24T08:14:11;9.43;;;4.57;;
4756;SDS011;2392;52.578;13.426;2022-10-24T08:16:39;11.30;;;5.10;;
4756;SDS011;2392;52.578;13.426;2022-10-24T08:19:07;7.83;;;4.67;;
4756;SDS011;2392;52.578;13.426;2022-10-24T08:21:36;10.17;;;4.57;;
4756;SDS011;2392;52.578;13.426;2022-10-24T08:24:03;9.60;;;5.27;;
4756;SDS011;2392;52.578;13.426;2022-10-24T08:26:31;9.73;;;4.80;;
4756;SDS011;2392;52.578;13.426;2022-10-24T08:29:00;12.23;;;5.10;;
4756;SDS011;2392;52.578;13.426;2022-10-24T08:31:28;10.17;;;4.70;;
4756;SDS011;2392;52.578;13.426;2022-10-24T08:33:55;8.10;;;4.47;;
4756;SDS011;2392;52.578;13.426;2022-10-24T08:36:23;10.03;;;3.87;;
4756;SDS011;2392;52.578;13.426;2022-10-24T08:38:51;7.80;;;5.10;;
4756;SDS011;2392;52.578;13.426;2022-10-24T08:41:23;5.77;;;3.90;;
4756;SDS011;2392;52.578;13.426;2022-10-24T08:43:52;11.27;;;3.97;;
4756;SDS011;2392;52.578;13.426;2022-10-24T08:46:37;12.83;;;4.63;;
4756;SDS011;2392;52.578;13.426;2022-10-24T08:49:14;7.63;;;3.27;;
4756;SDS011;2392;52.578;13.426;2022-10-24T08:51:47;11.20;;;3.73;;
4756;SDS011;2392;52.578;13.426;2022-10-24T08:54:19;4.03;;;3.60;;
4756;SDS011;2392;52.578;13.426;2022-10-24T08:56:48;10.93;;;3.90;;
4756;SDS011;2392;52.578;13.426;2022-10-24T08:59:17;15.50;;;5.17;;
4756;SDS011;2392;52.578;13.426;2022-10-24T09:01:45;7.40;;;4.13;;
4756;SDS011;2392;52.578;13.426;2022-10-24T09:04:17;8.80;;;4.10;;
4756;SDS011;2392;52.578;13.426;2022-10-24T09:06:46;7.50;;;3.83;;
4756;SDS011;2392;52.578;13.426;2022-10-24T09:09:16;9.50;;;3.20;;
4756;SDS011;2392;52.578;13.426;2022-10-24T09:11:47;9.00;;;3.63;;
4756;SDS011;2392;52.578;13.426;2022-10-24T09:14:18;13.20;;;4.23;;
4756;SDS011;2392;52.578;13.426;2022-10-24T09:16:50;13.27;;;3.97;;
4756;SDS011;2392;52.578;13.426;2022-10-24T09:19:23;10.50;;;3.00;;
4756;SDS011;2392;52.578;13.426;2022-10-24T09:21:51;15.60;;;4.00;;
4756;SDS011;2392;52.578;13.426;2022-10-24T09:24:28;7.27;;;3.97;;
4756;SDS011;2392;52.578;13.426;2022-10-24T09:26:59;6.60;;;3.17;;
4756;SDS011;2392;52.578;13.426;2022-10-24T09:29:29;4.47;;;3.20;;
4756;SDS011;2392;52.578;13.426;2022-10-24T09:31:59;10.30;;;3.60;;
4756;SDS011;2392;52.578;13.426;2022-10-24T09:34:27;8.87;;;3.90;;
4756;SDS011;2392;52.578;13.426;2022-10-24T09:36:54;8.90;;;4.00;;
4756;SDS011;2392;52.578;13.426;2022-10-24T09:39:23;10.30;;;3.57;;
4756;SDS011;2392;52.578;13.426;2022-10-24T09:41:52;12.30;;;3.57;;
4756;SDS011;2392;52.578;13.426;2022-10-24T09:44:32;17.33;;;3.70;;
4756;SDS011;2392;52.578;13.426;2022-10-24T09:47:03;10.17;;;4.30;;
4756;SDS011;2392;52.578;13.426;2022-10-24T09:49:34;7.77;;;4.00;;
4756;SDS011;2392;52.578;13.426;2022-10-24T09:52:06;9.10;;;4.03;;
4756;SDS011;2392;52.578;13.426;2022-10-24T09:54:41;9.03;;;3.40;;
4756;SDS011;2392;52.578;13.426;2022-10-24T09:57:12;8.97;;;3.13;;
4756;SDS011;2392;52.578;13.426;2022-10-24T09:59:41;15.73;;;4.53;;
4756;SDS011;2392;52.578;13.426;2022-10-24T10:02:21;19.40;;;3.17;;
4756;SDS011;2392;52.578;13.426;2022-10-24T10:07:42;8.63;;;3.47;;
4756;SDS011;2392;52.578;13.426;2022-10-24T10:10:21;6.90;;;3.60;;
4756;SDS011;2392;52.578;13.426;2022-10-24T10:12:54;5.50;;;4.43;;
4756;SDS011;2392;52.578;13.426;2022-10-24T10:15:24;6.20;;;3.30;;
4756;SDS011;2392;52.578;13.426;2022-10-24T10:17:57;9.67;;;3.23;;
4756;SDS011;2392;52.578;13.426;2022-10-24T10:20:27;9.77;;;3.27;;
4756;SDS011;2392;52.578;13.426;2022-10-24T10:22:58;4.53;;;2.77;;
4756;SDS011;2392;52.578;13.426;2022-10-24T10:25:42;14.13;;;3.40;;
4756;SDS011;2392;52.578;13.426;2022-10-24T10:28:17;8.70;;;2.93;;
4756;SDS011;2392;52.578;13.426;2022-10-24T10:30:47;11.17;;;2.67;;
4756;SDS011;2392;52.578;13.426;2022-10-24T10:33:17;8.57;;;2.97;;
4756;SDS011;2392;52.578;13.426;2022-10-24T10:35:50;10.60;;;4.00;;
4756;SDS011;2392;52.578;13.426;2022-10-24T10:38:43;6.97;;;3.13;;
4756;SDS011;2392;52.578;13.426;2022-10-24T10:41:25;11.10;;;3.77;;
4756;SDS011;2392;52.578;13.426;2022-10-24T10:44:05;9.47;;;2.93;;
4756;SDS011;2392;52.578;13.426;2022-10-24T10:46:43;9.07;;;2.77;;
4756;SDS011;2392;52.578;13.426;2022-10-24T10:49:21;11.90;;;3.43;;
4756;SDS011;2392;52.578;13.426;2022-10-24T10:51:55;13.10;;;3.03;;
4756;SDS011;2392;52.578;13.426;2022-10-24T10:54:34;12.43;;;2.90;;
4756;SDS011;2392;52.578;13.426;2022-10-24T10:57:16;5.83;;;2.63;;
4756;SDS011;2392;52.578;13.426;2022-10-24T10:59:49;5.50;;;2.67;;
4756;SDS011;2392;52.578;13.426;2022-10-24T11:02:30;6.27;;;2.83;;
4756;SDS011;2392;52.578;13.426;2022-10-24T11:05:25;12.77;;;3.00;;
4756;SDS011;2392;52.578;13.426;2022-10-24T11:08:00;12.43;;;3.00;;
4756;SDS011;2392;52.578;13.426;2022-10-24T11:10:34;11.00;;;3.13;;
4756;SDS011;2392;52.578;13.426;2022-10-24T11:13:04;4.13;;;2.90;;
4756;SDS011;2392;52.578;13.426;2022-10-24T11:15:39;7.80;;;3.30;;
4756;SDS011;2392;52.578;13.426;2022-10-24T11:18:11;11.80;;;3.10;;
4756;SDS011;2392;52.578;13.426;2022-10-24T11:20:45;8.03;;;3.03;;
4756;SDS011;2392;52.578;13.426;2022-10-24T11:23:16;8.97;;;3.03;;
4756;SDS011;2392;52.578;13.426;2022-10-24T11:25:49;15.87;;;3.77;;
4756;SDS011;2392;52.578;13.426;2022-10-24T11:28:20;8.30;;;3.20;;
4756;SDS011;2392;52.578;13.426;2022-10-24T11:30:52;8.90;;;3.10;;
4756;SDS011;2392;52.578;13.426;2022-10-24T11:33:25;8.30;;;3.40;;
4756;SDS011;2392;52.578;13.426;2022-10-24T11:36:08;12.67;;;2.90;;
4756;SDS011;2392;52.578;13.426;2022-10-24T11:38:43;7.87;;;2.47;;
4756;SDS011;2392;52.578;13.426;2022-10-24T11:41:25;9.83;;;3.00;;
4756;SDS011;2392;52.578;13.426;2022-10-24T11:44:14;7.53;;;3.20;;
4756;SDS011;2392;52.578;13.426;2022-10-24T11:46:49;6.23;;;2.10;;
4756;SDS011;2392;52.578;13.426;2022-10-24T11:49:24;5.27;;;2.70;;
4756;SDS011;2392;52.578;13.426;2022-10-24T11:51:58;4.03;;;2.60;;
4756;SDS011;2392;52.578;13.426;2022-10-24T11:54:31;9.93;;;3.00;;
4756;SDS011;2392;52.578;13.426;2022-10-24T11:57:08;5.00;;;2.60;;
4756;SDS011;2392;52.578;13.426;2022-10-24T11:59:38;8.37;;;3.00;;
4756;SDS011;2392;52.578;13.426;2022-10-24T12:02:14;9.23;;;3.03;;
4756;SDS011;2392;52.578;13.426;2022-10-24T12:05:07;12.00;;;3.70;;
4756;SDS011;2392;52.578;13.426;2022-10-24T12:07:53;7.40;;;2.60;;
4756;SDS011;2392;52.578;13.426;2022-10-24T12:10:57;5.17;;;2.30;;
4756;SDS011;2392;52.578;13.426;2022-10-24T12:16:41;10.43;;;3.13;;
4756;SDS011;2392;52.578;13.426;2022-10-24T12:19:18;9.07;;;2.93;;
4756;SDS011;2392;52.578;13.426;2022-10-24T12:21:48;11.10;;;2.60;;
4756;SDS011;2392;52.578;13.426;2022-10-24T12:24:21;10.97;;;3.10;;
4756;SDS011;2392;52.578;13.426;2022-10-24T12:26:55;8.13;;;2.90;;
4756;SDS011;2392;52.578;13.426;2022-10-24T12:29:27;4.70;;;2.67;;
4756;SDS011;2392;52.578;13.426;2022-10-24T12:31:57;5.53;;;2.30;;
4756;SDS011;2392;52.578;13.426;2022-10-24T12:37:30;8.47;;;2.60;;
4756;SDS011;2392;52.578;13.426;2022-10-24T12:40:00;13.77;;;2.77;;
4756;SDS011;2392;52.578;13.426;2022-10-24T12:43:12;11.37;;;2.97;;
4756;SDS011;2392;52.578;13.426;2022-10-24T12:45:42;6.93;;;2.33;;
4756;SDS011;2392;52.578;13.426;2022-10-24T12:48:27;13.80;;;3.13;;
4756;SDS011;2392;52.578;13.426;2022-10-24T12:51:00;10.77;;;3.07;;
4756;SDS011;2392;52.578;13.426;2022-10-24T12:53:31;8.90;;;3.20;;
4756;SDS011;2392;52.578;13.426;2022-10-24T12:56:05;8.47;;;2.87;;
4756;SDS011;2392;52.578;13.426;2022-10-24T12:58:35;11.63;;;3.00;;
4756;SDS011;2392;52.578;13.426;2022-10-24T13:01:08;7.97;;;3.00;;
4756;SDS011;2392;52.578;13.426;2022-10-24T13:06:42;13.63;;;2.60;;
4756;SDS011;2392;52.578;13.426;2022-10-24T13:09:21;11.93;;;2.57;;
4756;SDS011;2392;52.578;13.426;2022-10-24T13:12:02;12.60;;;4.30;;
4756;SDS011;2392;52.578;13.426;2022-10-24T13:17:44;5.87;;;2.77;;
4756;SDS011;2392;52.578;13.426;2022-10-24T13:20:16;10.50;;;2.90;;
4756;SDS011;2392;52.578;13.426;2022-10-24T13:22:44;8.60;;;3.17;;
4756;SDS011;2392;52.578;13.426;2022-10-24T13:25:18;5.80;;;2.53;;
4756;SDS011;2392;52.578;13.426;2022-10-24T13:34:12;6.10;;;2.70;;
4756;SDS011;2392;52.578;13.426;2022-10-24T13:36:48;8.07;;;2.80;;
4756;SDS011;2392;52.578;13.426;2022-10-24T13:39:20;15.60;;;2.97;;
4756;SDS011;2392;52.578;13.426;2022-10-24T13:41:55;8.33;;;2.73;;
4756;SDS011;2392;52.578;13.426;2022-10-24T13:44:25;7.13;;;2.50;;
4756;SDS011;2392;52.578;13.426;2022-10-24T13:47:01;6.03;;;2.60;;
4756;SDS011;2392;52.578;13.426;2022-10-24T13:49:38;7.57;;;2.73;;
4756;SDS011;2392;52.578;13.426;2022-10-24T13:52:13;5.50;;;2.70;;
4756;SDS011;2392;52.578;13.426;2022-10-24T13:54:44;9.93;;;2.73;;
4756;SDS011;2392;52.578;13.426;2022-10-24T13:57:23;8.37;;;3.07;;
4756;SDS011;2392;52.578;13.426;2022-10-24T13:59:52;5.87;;;2.70;;
4756;SDS011;2392;52.578;13.426;2022-10-24T14:02:23;8.83;;;2.30;;
4756;SDS011;2392;52.578;13.426;2022-10-24T14:04:52;8.23;;;2.73;;
4756;SDS011;2392;52.578;13.426;2022-10-24T14:07:20;12.57;;;4.00;;
4756;SDS011;2392;52.578;13.426;2022-10-24T14:09:52;7.63;;;2.30;;
4756;SDS011;2392;52.578;13.426;2022-10-24T14:12:22;5.53;;;2.53;;
4756;SDS011;2392;52.578;13.426;2022-10-24T14:14:51;8.83;;;2.83;;
4756;SDS011;2392;52.578;13.426;2022-10-24T14:17:22;8.80;;;3.10;;
4756;SDS011;2392;52.578;13.426;2022-10-24T14:19:52;6.60;;;2.30;;
4756;SDS011;2392;52.578;13.426;2022-10-24T14:22:21;5.63;;;2.90;;
4756;SDS011;2392;52.578;13.426;2022-10-24T14:24:49;4.57;;;2.90;;
4756;SDS011;2392;52.578;13.426;2022-10-24T14:27:16;6.67;;;3.40;;
4756;SDS011;2392;52.578;13.426;2022-10-24T14:29:52;5.10;;;2.60;;
4756;SDS011;2392;52.578;13.426;2022-10-24T14:32:23;10.77;;;3.30;;
4756;SDS011;2392;52.578;13.426;2022-10-24T14:34:51;8.80;;;2.60;;
4756;SDS011;2392;52.578;13.426;2022-10-24T14:37:23;11.10;;;2.90;;
4756;SDS011;2392;52.578;13.426;2022-10-24T14:39:53;10.07;;;3.30;;
4756;SDS011;2392;52.578;13.426;2022-10-24T14:42:21;7.43;;;3.00;;
4756;SDS011;2392;52.578;13.426;2022-10-24T14:44:48;5.87;;;3.07;;
4756;SDS011;2392;52.578;13.426;2022-10-24T14:47:19;11.33;;;3.07;;
4756;SDS011;2392;52.578;13.426;2022-10-24T14:49:49;11.30;;;3.50;;
4756;SDS011;2392;52.578;13.426;2022-10-24T14:52:18;6.73;;;2.90;;
4756;SDS011;2392;52.578;13.426;2022-10-24T14:54:52;14.47;;;3.07;;
4756;SDS011;2392;52.578;13.426;2022-10-24T14:57:23;4.90;;;2.20;;
4756;SDS011;2392;52.578;13.426;2022-10-24T14:59:51;8.80;;;3.20;;
4756;SDS011;2392;52.578;13.426;2022-10-24T15:02:20;5.67;;;2.50;;
4756;SDS011;2392;52.578;13.426;2022-10-24T15:04:51;7.63;;;2.50;;
4756;SDS011;2392;52.578;13.426;2022-10-24T15:07:28;5.00;;;2.53;;
4756;SDS011;2392;52.578;13.426;2022-10-24T15:09:57;7.63;;;2.20;;
4756;SDS011;2392;52.578;13.426;2022-10-24T15:12:26;6.33;;;2.57;;
4756;SDS011;2392;52.578;13.426;2022-10-24T15:14:58;8.07;;;2.60;;
4756;SDS011;2392;52.578;13.426;2022-10-24T15:17:40;10.20;;;3.37;;
4756;SDS011;2392;52.578;13.426;2022-10-24T15:20:11;8.77;;;2.50;;
4756;SDS011;2392;52.578;13.426;2022-10-24T15:22:44;10.20;;;2.70;;
4756;SDS011;2392;52.578;13.426;2022-10-24T15:25:16;7.90;;;3.00;;
4756;SDS011;2392;52.578;13.426;2022-10-24T15:27:45;7.13;;;2.60;;
4756;SDS011;2392;52.578;13.426;2022-10-24T15:30:13;7.00;;;3.30;;
4756;SDS011;2392;52.578;13.426;2022-10-24T15:32:42;7.47;;;2.93;;
4756;SDS011;2392;52.578;13.426;2022-10-24T15:35:11;6.00;;;2.93;;
4756;SDS011;2392;52.578;13.426;2022-10-24T15:37:38;7.13;;;3.37;;
4756;SDS011;2392;52.578;13.426;2022-10-24T15:40:09;9.33;;;3.00;;
4756;SDS011;2392;52.578;13.426;2022-10-24T15:42:44;8.50;;;3.40;;
4756;SDS011;2392;52.578;13.426;2022-10-24T15:45:12;9.20;;;3.20;;
4756;SDS011;2392;52.578;13.426;2022-10-24T15:47:40;6.33;;;2.80;;